createdAt,value
2024-02-04T00:00:12.133Z,2.53
2024-02-04T00:00:44.176Z,2.33
2024-02-04T00:01:16.231Z,1.97
2024-02-04T00:01:48.551Z,2.27
2024-02-04T00:02:24.955Z,2.47
2024-02-04T00:02:57.842Z,2.10
2024-02-04T00:03:29.735Z,2.47
2024-02-04T00:04:01.722Z,2.23
2024-02-04T00:04:34.025Z,2.33
2024-02-04T00:05:05.957Z,2.00
2024-02-04T00:05:37.728Z,2.23
2024-02-04T00:06:09.551Z,2.27
2024-02-04T00:06:41.484Z,2.00
2024-02-04T00:07:13.331Z,2.00
2024-02-04T00:07:45.507Z,1.87
2024-02-04T00:08:18.304Z,2.00
2024-02-04T00:08:50.309Z,2.27
2024-02-04T00:09:22.328Z,1.93
2024-02-04T00:09:54.197Z,2.03
2024-02-04T00:10:27.863Z,2.10
2024-02-04T00:11:00.088Z,2.10
2024-02-04T00:11:31.893Z,2.13
2024-02-04T00:12:05.270Z,1.97
2024-02-04T00:12:37.376Z,1.97
2024-02-04T00:13:09.258Z,1.83
2024-02-04T00:13:41.056Z,2.07
2024-02-04T00:14:13.583Z,1.93
2024-02-04T00:14:45.390Z,1.90
2024-02-04T00:15:17.216Z,2.23
2024-02-04T00:15:49.017Z,2.20
2024-02-04T00:16:20.878Z,1.93
2024-02-04T00:16:52.689Z,1.90
2024-02-04T00:17:24.605Z,2.17
2024-02-04T00:17:56.589Z,2.60
2024-02-04T00:18:28.587Z,2.60
2024-02-04T00:19:00.635Z,2.87
2024-02-04T00:19:32.646Z,2.40
2024-02-04T00:20:06.792Z,2.23
2024-02-04T00:20:38.773Z,2.27
2024-02-04T00:21:10.717Z,2.50
2024-02-04T00:21:42.534Z,2.30
2024-02-04T00:22:14.451Z,2.30
2024-02-04T00:22:46.288Z,2.43
2024-02-04T00:23:18.224Z,2.13
2024-02-04T00:23:50.035Z,2.07
2024-02-04T00:24:22.120Z,2.10
2024-02-04T00:24:54.851Z,2.60
2024-02-04T00:25:26.725Z,2.17
2024-02-04T00:25:58.724Z,2.13
2024-02-04T00:26:30.487Z,2.03
2024-02-04T00:27:02.340Z,2.30
2024-02-04T00:27:34.561Z,2.53
2024-02-04T00:28:06.689Z,2.30
2024-02-04T00:28:38.539Z,2.10
2024-02-04T00:29:10.301Z,2.17
2024-02-04T00:29:42.113Z,2.53
2024-02-04T00:30:14.103Z,2.40
2024-02-04T00:30:45.958Z,2.30
2024-02-04T00:31:17.835Z,2.07
2024-02-04T00:31:49.780Z,2.37
2024-02-04T00:32:21.742Z,2.27
2024-02-04T00:32:53.613Z,2.27
2024-02-04T00:33:25.619Z,2.17
2024-02-04T00:33:57.584Z,2.43
2024-02-04T00:34:29.522Z,2.20
2024-02-04T00:35:01.456Z,2.43
2024-02-04T00:35:33.346Z,2.33
2024-02-04T00:36:05.374Z,2.40
2024-02-04T00:36:37.397Z,2.43
2024-02-04T00:37:09.274Z,2.40
2024-02-04T00:37:41.083Z,2.13
2024-02-04T00:38:12.887Z,2.10
2024-02-04T00:38:44.680Z,2.17
2024-02-04T00:39:16.535Z,2.37
2024-02-04T00:39:48.347Z,2.23
2024-02-04T00:40:20.140Z,2.37
2024-02-04T00:40:53.562Z,2.47
2024-02-04T00:41:26.113Z,2.47
2024-02-04T00:41:58.082Z,2.43
2024-02-04T00:42:30.008Z,2.27
2024-02-04T00:43:01.975Z,2.37
2024-02-04T00:43:33.857Z,2.33
2024-02-04T00:44:05.648Z,2.47
2024-02-04T00:44:37.577Z,2.33
2024-02-04T00:45:09.515Z,2.33
2024-02-04T00:45:41.407Z,2.30
2024-02-04T00:46:13.207Z,2.40
2024-02-04T00:46:45.361Z,2.30
2024-02-04T00:47:17.180Z,2.30
2024-02-04T00:47:49.036Z,2.10
2024-02-04T00:48:21.095Z,2.33
2024-02-04T00:48:53.168Z,2.13
2024-02-04T00:49:25.223Z,1.93
2024-02-04T00:49:57.185Z,2.03
2024-02-04T00:50:29.041Z,2.33
2024-02-04T00:51:00.815Z,2.40
2024-02-04T00:51:33.169Z,1.87
2024-02-04T00:52:05.536Z,2.17
2024-02-04T00:52:39.723Z,2.40
2024-02-04T00:53:11.564Z,2.40
2024-02-04T00:53:43.491Z,2.17
2024-02-04T00:54:15.349Z,2.27
2024-02-04T00:54:47.203Z,2.27
2024-02-04T00:55:19.127Z,1.83
2024-02-04T00:55:50.920Z,1.97
2024-02-04T00:56:22.705Z,2.23
2024-02-04T00:56:55.189Z,2.33
2024-02-04T00:57:27.018Z,2.10
2024-02-04T00:58:01.454Z,2.60
2024-02-04T00:58:33.352Z,2.83
2024-02-04T00:59:05.344Z,2.77
2024-02-04T00:59:37.640Z,2.67
2024-02-04T01:00:10.637Z,2.40
2024-02-04T01:00:42.586Z,2.50
2024-02-04T01:01:14.643Z,2.73
2024-02-04T01:01:46.686Z,2.83
2024-02-04T01:02:18.567Z,2.63
2024-02-04T01:02:50.467Z,2.80
2024-02-04T01:03:22.858Z,3.07
2024-02-04T01:03:54.913Z,3.47
2024-02-04T01:04:26.992Z,3.07
2024-02-04T01:04:58.985Z,3.63
2024-02-04T01:05:30.877Z,4.30
2024-02-04T01:06:03.144Z,5.67
2024-02-04T01:06:43.311Z,5.47
2024-02-04T01:07:23.375Z,5.50
2024-02-04T01:07:55.188Z,4.80
2024-02-04T01:08:27.284Z,5.37
2024-02-04T01:08:59.158Z,7.93
2024-02-04T01:09:31.113Z,9.17
2024-02-04T01:10:06.172Z,10.77
2024-02-04T01:10:39.921Z,7.07
2024-02-04T01:11:11.691Z,4.87
2024-02-04T01:11:43.559Z,4.57
2024-02-04T01:12:15.365Z,3.93
2024-02-04T01:12:47.279Z,4.43
2024-02-04T01:13:19.116Z,4.63
2024-02-04T01:13:51.039Z,5.33
2024-02-04T01:14:22.853Z,5.73
2024-02-04T01:14:54.694Z,5.77
2024-02-04T01:15:27.233Z,6.10
2024-02-04T01:15:59.186Z,6.53
2024-02-04T01:16:31.154Z,5.73
2024-02-04T01:17:02.961Z,6.23
2024-02-04T01:17:35.370Z,5.57
2024-02-04T01:18:07.482Z,5.50
2024-02-04T01:18:39.559Z,6.07
2024-02-04T01:19:11.497Z,5.93
2024-02-04T01:19:43.554Z,5.67
2024-02-04T01:20:15.780Z,5.27
2024-02-04T01:20:47.609Z,5.63
2024-02-04T01:21:19.428Z,5.97
2024-02-04T01:21:51.397Z,6.50
2024-02-04T01:22:27.366Z,6.83
2024-02-04T01:22:59.176Z,7.23
2024-02-04T01:23:31.117Z,7.20
2024-02-04T01:24:02.881Z,7.00
2024-02-04T01:24:34.776Z,6.87
2024-02-04T01:25:07.725Z,7.73
2024-02-04T01:25:42.754Z,7.87
2024-02-04T01:26:16.427Z,6.73
2024-02-04T01:26:48.281Z,5.83
2024-02-04T01:27:20.237Z,6.07
2024-02-04T01:27:52.128Z,6.30
2024-02-04T01:28:23.978Z,5.93
2024-02-04T01:28:55.885Z,5.50
2024-02-04T01:29:27.698Z,4.90
2024-02-04T01:29:59.524Z,4.63
2024-02-04T01:30:32.688Z,5.10
2024-02-04T01:31:05.039Z,4.57
2024-02-04T01:31:37.232Z,5.37
2024-02-04T01:32:09.063Z,5.00
2024-02-04T01:32:40.853Z,4.77
2024-02-04T01:33:12.879Z,5.23
2024-02-04T01:33:44.799Z,4.97
2024-02-04T01:34:16.798Z,4.57
2024-02-04T01:34:48.784Z,4.63
2024-02-04T01:35:21.100Z,4.83
2024-02-04T01:35:53.867Z,4.77
2024-02-04T01:36:25.725Z,4.77
2024-02-04T01:36:57.585Z,5.60
2024-02-04T01:37:29.361Z,5.53
2024-02-04T01:38:01.154Z,5.07
2024-02-04T01:38:33.000Z,4.70
2024-02-04T01:39:05.992Z,5.77
2024-02-04T01:39:37.825Z,5.63
2024-02-04T01:40:11.064Z,5.23
2024-02-04T01:40:42.910Z,4.93
2024-02-04T01:41:14.855Z,4.40
2024-02-04T01:41:47.091Z,4.27
2024-02-04T01:42:19.001Z,4.33
2024-02-04T01:42:50.866Z,5.53
2024-02-04T01:43:22.713Z,4.97
2024-02-04T01:43:55.336Z,4.87
2024-02-04T01:44:27.298Z,4.63
2024-02-04T01:44:59.124Z,4.43
2024-02-04T01:45:31.100Z,4.23
2024-02-04T01:46:06.568Z,4.93
2024-02-04T01:46:40.382Z,4.93
2024-02-04T01:47:12.196Z,4.33
2024-02-04T01:47:44.186Z,4.70
2024-02-04T01:48:16.919Z,5.10
2024-02-04T01:48:49.095Z,4.70
2024-02-04T01:49:21.404Z,4.83
2024-02-04T01:49:53.307Z,4.87
2024-02-04T01:50:25.440Z,4.77
2024-02-04T01:51:00.712Z,5.07
2024-02-04T01:51:32.769Z,5.27
2024-02-04T01:52:06.609Z,5.03
2024-02-04T01:52:42.414Z,4.90
2024-02-04T01:53:16.002Z,5.13
2024-02-04T01:53:49.282Z,5.00
2024-02-04T01:54:25.072Z,4.77
2024-02-04T01:54:57.216Z,4.90
2024-02-04T01:55:29.316Z,4.13
2024-02-04T01:56:01.257Z,5.03
2024-02-04T01:56:33.247Z,5.30
2024-02-04T01:57:05.860Z,5.17
2024-02-04T01:57:37.812Z,5.20
2024-02-04T01:58:09.711Z,4.87
2024-02-04T01:58:43.204Z,4.77
2024-02-04T01:59:15.099Z,4.73
2024-02-04T01:59:47.013Z,4.80
2024-02-04T02:00:19.640Z,5.13
2024-02-04T02:00:52.607Z,5.17
2024-02-04T02:01:24.803Z,4.63
2024-02-04T02:01:57.211Z,4.57
2024-02-04T02:02:29.977Z,4.80
2024-02-04T02:03:05.356Z,4.57
2024-02-04T02:03:40.028Z,4.83
2024-02-04T02:04:11.991Z,5.00
2024-02-04T02:04:44.669Z,4.67
2024-02-04T02:05:16.727Z,4.27
2024-02-04T02:05:48.619Z,4.53
2024-02-04T02:06:20.957Z,4.17
2024-02-04T02:06:55.105Z,5.03
2024-02-04T02:07:28.674Z,5.07
2024-02-04T02:08:00.737Z,4.87
2024-02-04T02:08:33.797Z,4.60
2024-02-04T02:09:07.262Z,5.13
2024-02-04T02:09:39.366Z,4.87
2024-02-04T02:10:12.177Z,4.73
2024-02-04T02:10:49.190Z,4.90
2024-02-04T02:11:50.868Z,4.63
2024-02-04T02:12:35.531Z,4.67
2024-02-04T02:13:21.716Z,4.47
2024-02-04T02:14:02.274Z,4.60
2024-02-04T02:14:39.387Z,4.83
2024-02-04T02:15:24.963Z,4.60
2024-02-04T02:16:04.044Z,4.47
2024-02-04T02:16:35.952Z,4.27
2024-02-04T02:17:19.401Z,4.53
2024-02-04T02:18:03.451Z,4.53
2024-02-04T02:18:53.449Z,4.70
2024-02-04T02:20:00.660Z,4.47
2024-02-04T02:21:10.048Z,4.47
2024-02-04T02:22:08.017Z,4.60
2024-02-04T02:22:49.781Z,4.87
2024-02-04T02:23:35.471Z,4.67
2024-02-04T02:24:25.548Z,4.60
2024-02-04T02:24:58.542Z,4.40
2024-02-04T02:25:32.293Z,4.87
2024-02-04T02:26:05.330Z,5.33
2024-02-04T02:26:39.737Z,4.70
2024-02-04T02:27:11.538Z,4.73
2024-02-04T02:27:50.575Z,4.80
2024-02-04T02:28:22.374Z,4.40
2024-02-04T02:28:54.251Z,5.37
2024-02-04T02:29:26.098Z,4.97
2024-02-04T02:29:57.999Z,5.13
2024-02-04T02:30:29.814Z,4.80
2024-02-04T02:31:04.521Z,4.60
2024-02-04T02:31:48.091Z,4.43
2024-02-04T02:32:21.478Z,4.57
2024-02-04T02:32:53.869Z,4.33
2024-02-04T02:33:25.960Z,5.20
2024-02-04T02:33:57.985Z,4.73
2024-02-04T02:34:38.233Z,4.60
2024-02-04T02:35:13.705Z,5.07
2024-02-04T02:35:54.826Z,5.07
2024-02-04T02:36:35.009Z,4.80
2024-02-04T02:37:23.321Z,4.40
2024-02-04T02:38:16.570Z,4.47
2024-02-04T02:38:59.950Z,4.03
2024-02-04T02:39:46.893Z,4.57
2024-02-04T02:40:29.208Z,4.93
2024-02-04T02:41:08.301Z,4.17
2024-02-04T02:41:45.084Z,3.70
2024-02-04T02:42:19.833Z,4.03
2024-02-04T02:42:54.538Z,4.30
2024-02-04T02:43:29.365Z,4.10
2024-02-04T02:44:02.503Z,4.47
2024-02-04T02:44:37.393Z,4.43
2024-02-04T02:45:10.387Z,4.17
2024-02-04T02:45:44.572Z,4.37
2024-02-04T02:46:16.771Z,4.53
2024-02-04T02:46:49.229Z,4.20
2024-02-04T02:47:23.038Z,4.00
2024-02-04T02:47:55.735Z,4.13
2024-02-04T02:48:28.714Z,4.43
2024-02-04T02:49:00.849Z,4.27
2024-02-04T02:49:32.966Z,4.27
2024-02-04T02:50:07.090Z,4.43
2024-02-04T02:50:39.532Z,4.80
2024-02-04T02:51:11.423Z,4.43
2024-02-04T02:51:43.319Z,4.17
2024-02-04T02:52:15.158Z,4.53
2024-02-04T02:52:47.006Z,4.57
2024-02-04T02:53:20.922Z,4.50
2024-02-04T02:53:52.695Z,4.20
2024-02-04T02:54:24.524Z,4.17
2024-02-04T02:54:56.397Z,4.77
2024-02-04T02:55:28.297Z,4.53
2024-02-04T02:56:00.085Z,4.53
2024-02-04T02:56:31.877Z,4.47
2024-02-04T02:57:03.789Z,4.03
2024-02-04T02:57:35.653Z,3.57
2024-02-04T02:58:07.520Z,4.37
2024-02-04T02:58:39.366Z,3.50
2024-02-04T02:59:11.138Z,4.00
2024-02-04T02:59:42.962Z,4.27
2024-02-04T03:00:15.239Z,4.43
2024-02-04T03:00:47.203Z,4.57
2024-02-04T03:01:19.182Z,4.63
2024-02-04T03:01:51.050Z,4.50
2024-02-04T03:02:22.881Z,4.07
2024-02-04T03:02:54.766Z,4.00
2024-02-04T03:03:26.828Z,3.93
2024-02-04T03:03:58.729Z,3.97
2024-02-04T03:04:30.694Z,4.17
2024-02-04T03:05:02.579Z,4.20
2024-02-04T03:05:34.495Z,4.33
2024-02-04T03:06:06.767Z,4.40
2024-02-04T03:06:38.808Z,4.27
2024-02-04T03:07:10.695Z,4.70
2024-02-04T03:07:42.625Z,4.27
2024-02-04T03:08:14.524Z,4.40
2024-02-04T03:08:46.381Z,4.23
2024-02-04T03:09:18.171Z,4.27
2024-02-04T03:09:50.059Z,4.53
2024-02-04T03:10:21.920Z,5.07
2024-02-04T03:10:53.791Z,4.23
2024-02-04T03:11:25.613Z,4.53
2024-02-04T03:11:57.458Z,4.83
2024-02-04T03:12:29.318Z,5.00
2024-02-04T03:13:02.063Z,4.97
2024-02-04T03:13:33.978Z,4.93
2024-02-04T03:14:05.807Z,4.47
2024-02-04T03:14:37.621Z,4.77
2024-02-04T03:15:09.584Z,4.57
2024-02-04T03:15:42.331Z,4.77
2024-02-04T03:16:14.334Z,4.60
2024-02-04T03:16:46.396Z,4.93
2024-02-04T03:17:22.203Z,5.17
2024-02-04T03:17:54.160Z,4.47
2024-02-04T03:18:26.664Z,4.60
2024-02-04T03:18:58.531Z,4.83
2024-02-04T03:19:30.407Z,5.33
2024-02-04T03:20:02.509Z,5.13
2024-02-04T03:20:34.542Z,5.30
2024-02-04T03:21:16.253Z,5.40
2024-02-04T03:21:48.814Z,5.23
2024-02-04T03:22:22.443Z,4.83
2024-02-04T03:22:56.291Z,4.93
2024-02-04T03:23:28.168Z,5.00
2024-02-04T03:23:59.976Z,5.13
2024-02-04T03:24:31.813Z,4.93
2024-02-04T03:25:04.027Z,5.30
2024-02-04T03:25:35.921Z,5.20
2024-02-04T03:26:07.682Z,4.90
2024-02-04T03:26:39.437Z,5.00
2024-02-04T03:27:11.267Z,5.33
2024-02-04T03:27:43.682Z,5.83
2024-02-04T03:28:15.546Z,5.27
2024-02-04T03:28:47.409Z,5.43
2024-02-04T03:29:19.189Z,5.27
2024-02-04T03:29:51.044Z,5.60
2024-02-04T03:30:22.985Z,6.07
2024-02-04T03:30:55.307Z,6.20
2024-02-04T03:31:27.244Z,5.60
2024-02-04T03:31:59.065Z,5.83
2024-02-04T03:32:34.807Z,6.27
2024-02-04T03:33:07.245Z,6.80
2024-02-04T03:33:39.288Z,6.47
2024-02-04T03:34:11.330Z,5.90
2024-02-04T03:34:44.060Z,6.07
2024-02-04T03:35:16.078Z,5.87
2024-02-04T03:35:47.920Z,6.17
2024-02-04T03:36:22.507Z,6.00
2024-02-04T03:36:54.532Z,5.97
2024-02-04T03:37:26.382Z,6.47
2024-02-04T03:37:58.235Z,6.50
2024-02-04T03:38:30.116Z,6.57
2024-02-04T03:39:01.912Z,6.43
2024-02-04T03:39:33.814Z,6.17
2024-02-04T03:40:06.319Z,6.27
2024-02-04T03:40:38.155Z,6.30
2024-02-04T03:41:09.938Z,6.77
2024-02-04T03:41:41.734Z,6.50
2024-02-04T03:42:13.612Z,6.27
2024-02-04T03:42:45.487Z,6.50
2024-02-04T03:43:17.309Z,6.40
2024-02-04T03:43:49.098Z,6.17
2024-02-04T03:44:20.898Z,6.13
2024-02-04T03:44:52.671Z,6.43
2024-02-04T03:45:24.599Z,6.10
2024-02-04T03:45:56.553Z,6.17
2024-02-04T03:46:28.563Z,6.63
2024-02-04T03:47:00.769Z,6.00
2024-02-04T03:47:32.616Z,6.50
2024-02-04T03:48:05.303Z,6.77
2024-02-04T03:48:37.328Z,6.33
2024-02-04T03:49:09.535Z,5.87
2024-02-04T03:49:41.746Z,5.90
2024-02-04T03:50:13.632Z,6.10
2024-02-04T03:50:45.797Z,6.83
2024-02-04T03:51:19.417Z,6.70
2024-02-04T03:51:51.455Z,6.30
2024-02-04T03:52:23.285Z,6.20
2024-02-04T03:52:55.101Z,6.33
2024-02-04T03:53:26.988Z,6.33
2024-02-04T03:53:58.786Z,5.93
2024-02-04T03:54:30.587Z,5.80
2024-02-04T03:55:02.574Z,5.73
2024-02-04T03:55:34.579Z,5.90
2024-02-04T03:56:06.598Z,6.30
2024-02-04T03:56:38.451Z,5.97
2024-02-04T03:57:10.316Z,5.43
2024-02-04T03:57:43.279Z,5.77
2024-02-04T03:58:15.294Z,5.83
2024-02-04T03:58:47.221Z,6.13
2024-02-04T03:59:19.075Z,5.67
2024-02-04T03:59:50.868Z,5.60
2024-02-04T04:00:22.774Z,5.43
2024-02-04T04:00:54.909Z,5.47
2024-02-04T04:01:26.902Z,5.60
2024-02-04T04:01:59.266Z,5.83
2024-02-04T04:02:31.130Z,6.17
2024-02-04T04:03:03.084Z,5.53
2024-02-04T04:03:34.948Z,5.33
2024-02-04T04:04:07.011Z,5.70
2024-02-04T04:04:42.008Z,6.17
2024-02-04T04:05:14.327Z,5.60
2024-02-04T04:05:46.412Z,5.27
2024-02-04T04:06:18.311Z,5.60
2024-02-04T04:06:50.322Z,6.10
2024-02-04T04:07:22.301Z,6.00
2024-02-04T04:07:54.240Z,5.97
2024-02-04T04:08:26.045Z,5.40
2024-02-04T04:09:00.240Z,5.60
2024-02-04T04:09:32.235Z,5.60
2024-02-04T04:10:04.330Z,5.57
2024-02-04T04:10:36.260Z,5.60
2024-02-04T04:11:11.805Z,5.30
2024-02-04T04:11:43.683Z,5.43
2024-02-04T04:12:15.600Z,5.10
2024-02-04T04:12:47.473Z,5.53
2024-02-04T04:13:19.569Z,5.77
2024-02-04T04:13:51.337Z,5.90
2024-02-04T04:14:23.094Z,5.83
2024-02-04T04:14:54.951Z,5.30
2024-02-04T04:15:26.827Z,5.30
2024-02-04T04:15:58.756Z,4.80
2024-02-04T04:16:30.638Z,4.93
2024-02-04T04:17:02.467Z,5.20
2024-02-04T04:17:34.324Z,5.03
2024-02-04T04:18:06.662Z,4.83
2024-02-04T04:18:39.495Z,5.00
2024-02-04T04:19:11.493Z,5.27
2024-02-04T04:19:43.948Z,4.53
2024-02-04T04:20:16.309Z,5.13
2024-02-04T04:20:48.215Z,4.80
2024-02-04T04:21:20.093Z,4.70
2024-02-04T04:21:51.988Z,4.80
2024-02-04T04:22:23.909Z,4.70
2024-02-04T04:22:55.867Z,4.67
2024-02-04T04:23:27.898Z,4.37
2024-02-04T04:23:59.865Z,4.23
2024-02-04T04:24:31.649Z,4.10
2024-02-04T04:25:03.810Z,4.37
2024-02-04T04:25:35.634Z,3.77
2024-02-04T04:26:07.479Z,4.23
2024-02-04T04:26:39.243Z,4.47
2024-02-04T04:27:11.038Z,3.70
2024-02-04T04:27:42.919Z,3.97
2024-02-04T04:28:14.793Z,4.17
2024-02-04T04:28:46.799Z,3.40
2024-02-04T04:29:18.776Z,3.73
2024-02-04T04:29:50.597Z,3.63
2024-02-04T04:30:22.581Z,3.70
2024-02-04T04:30:54.420Z,3.93
2024-02-04T04:31:26.286Z,3.77
2024-02-04T04:31:58.143Z,3.80
2024-02-04T04:32:29.924Z,4.30
2024-02-04T04:33:01.837Z,3.73
2024-02-04T04:33:33.791Z,3.73
2024-02-04T04:34:05.845Z,3.70
2024-02-04T04:34:37.856Z,4.03
2024-02-04T04:35:09.798Z,3.80
2024-02-04T04:35:41.648Z,3.43
2024-02-04T04:36:13.478Z,3.80
2024-02-04T04:36:45.346Z,3.90
2024-02-04T04:37:17.184Z,3.60
2024-02-04T04:37:49.071Z,3.87
2024-02-04T04:38:20.933Z,3.57
2024-02-04T04:38:52.782Z,3.80
2024-02-04T04:39:24.645Z,3.60
2024-02-04T04:39:56.565Z,3.53
2024-02-04T04:40:28.380Z,4.10
2024-02-04T04:41:00.197Z,3.87
2024-02-04T04:41:32.394Z,3.50
2024-02-04T04:42:04.434Z,3.90
2024-02-04T04:42:36.256Z,3.40
2024-02-04T04:43:08.074Z,3.80
2024-02-04T04:43:39.936Z,3.70
2024-02-04T04:44:11.781Z,3.43
2024-02-04T04:44:43.601Z,3.33
2024-02-04T04:45:15.983Z,4.07
2024-02-04T04:45:47.854Z,3.60
2024-02-04T04:46:19.785Z,3.20
2024-02-04T04:46:51.736Z,3.53
2024-02-04T04:47:23.537Z,3.57
2024-02-04T04:47:55.573Z,3.63
2024-02-04T04:48:27.684Z,3.77
2024-02-04T04:48:59.992Z,3.83
2024-02-04T04:49:32.056Z,3.17
2024-02-04T04:50:04.495Z,3.07
2024-02-04T04:50:36.758Z,3.93
2024-02-04T04:51:12.969Z,4.00
2024-02-04T04:51:48.070Z,3.77
2024-02-04T04:52:19.935Z,3.73
2024-02-04T04:52:51.792Z,3.83
2024-02-04T04:53:23.731Z,3.70
2024-02-04T04:53:55.571Z,3.70
2024-02-04T04:54:29.334Z,3.83
2024-02-04T04:55:01.242Z,3.73
2024-02-04T04:55:33.141Z,3.53
2024-02-04T04:56:05.696Z,3.90
2024-02-04T04:56:43.241Z,4.07
2024-02-04T04:57:15.781Z,3.70
2024-02-04T04:57:48.334Z,3.67
2024-02-04T04:58:20.208Z,3.47
2024-02-04T04:58:52.132Z,3.77
2024-02-04T04:59:24.072Z,4.20
2024-02-04T04:59:55.930Z,3.70
2024-02-04T05:00:27.895Z,3.80
2024-02-04T05:00:59.765Z,4.00
2024-02-04T05:01:31.695Z,3.93
2024-02-04T05:02:03.764Z,3.57
2024-02-04T05:02:35.647Z,3.90
2024-02-04T05:03:07.507Z,3.73
2024-02-04T05:03:39.502Z,4.00
2024-02-04T05:04:11.656Z,4.10
2024-02-04T05:04:46.085Z,4.00
2024-02-04T05:05:18.056Z,4.30
2024-02-04T05:05:49.885Z,4.10
2024-02-04T05:06:21.781Z,4.57
2024-02-04T05:06:53.686Z,4.30
2024-02-04T05:07:25.973Z,5.00
2024-02-04T05:07:57.926Z,4.37
2024-02-04T05:08:29.885Z,4.60
2024-02-04T05:09:01.762Z,5.17
2024-02-04T05:09:33.679Z,5.20
2024-02-04T05:10:06.243Z,5.20
2024-02-04T05:10:38.040Z,5.00
2024-02-04T05:11:09.954Z,5.03
2024-02-04T05:11:41.775Z,5.20
2024-02-04T05:12:13.634Z,4.73
2024-02-04T05:12:45.468Z,4.67
2024-02-04T05:13:17.271Z,4.63
2024-02-04T05:13:49.096Z,4.63
2024-02-04T05:14:21.174Z,5.03
2024-02-04T05:14:52.975Z,4.93
2024-02-04T05:15:26.243Z,4.60
2024-02-04T05:15:58.155Z,5.00
2024-02-04T05:16:30.259Z,4.80
2024-02-04T05:17:02.082Z,4.87
2024-02-04T05:17:35.025Z,4.50
2024-02-04T05:18:07.184Z,5.10
2024-02-04T05:18:39.390Z,4.80
2024-02-04T05:19:11.483Z,4.77
2024-02-04T05:19:43.986Z,4.97
2024-02-04T05:20:16.088Z,4.73
2024-02-04T05:20:49.553Z,4.93
2024-02-04T05:21:21.371Z,5.23
2024-02-04T05:21:53.203Z,5.37
2024-02-04T05:22:25.347Z,4.80
2024-02-04T05:22:58.653Z,4.57
2024-02-04T05:23:30.485Z,4.77
2024-02-04T05:24:02.255Z,4.97
2024-02-04T05:24:34.114Z,5.47
2024-02-04T05:25:07.539Z,5.43
2024-02-04T05:25:39.656Z,5.63
2024-02-04T05:26:11.428Z,6.00
2024-02-04T05:26:43.187Z,5.73
2024-02-04T05:27:14.944Z,5.37
2024-02-04T05:27:46.863Z,5.53
2024-02-04T05:28:18.777Z,5.37
2024-02-04T05:28:50.683Z,5.93
2024-02-04T05:29:22.551Z,5.90
2024-02-04T05:29:54.468Z,5.97
2024-02-04T05:30:26.289Z,6.30
2024-02-04T05:30:58.167Z,6.73
2024-02-04T05:31:30.000Z,5.97
2024-02-04T05:32:01.879Z,5.33
2024-02-04T05:32:34.056Z,5.90
2024-02-04T05:33:05.955Z,7.17
2024-02-04T05:33:37.829Z,6.80
2024-02-04T05:34:10.223Z,6.77
2024-02-04T05:34:42.170Z,6.20
2024-02-04T05:35:14.247Z,6.03
2024-02-04T05:35:46.148Z,5.83
2024-02-04T05:36:17.948Z,5.33
2024-02-04T05:36:49.931Z,5.10
2024-02-04T05:37:21.761Z,5.10
2024-02-04T05:37:53.588Z,5.43
2024-02-04T05:38:25.524Z,5.50
2024-02-04T05:38:57.385Z,5.10
2024-02-04T05:39:29.347Z,5.57
2024-02-04T05:40:01.306Z,5.30
2024-02-04T05:40:33.354Z,5.30
2024-02-04T05:41:05.621Z,5.23
2024-02-04T05:41:37.394Z,4.90
2024-02-04T05:42:09.234Z,5.03
2024-02-04T05:42:41.097Z,5.13
2024-02-04T05:43:13.620Z,5.60
2024-02-04T05:43:46.598Z,5.50
2024-02-04T05:44:18.434Z,5.67
2024-02-04T05:44:50.532Z,5.47
2024-02-04T05:45:22.729Z,5.13
2024-02-04T05:45:54.691Z,5.13
2024-02-04T05:46:28.940Z,4.97
2024-02-04T05:47:01.263Z,5.17
2024-02-04T05:47:33.372Z,4.73
2024-02-04T05:48:06.138Z,4.67
2024-02-04T05:48:38.243Z,5.17
2024-02-04T05:49:10.284Z,5.57
2024-02-04T05:49:42.699Z,5.47
2024-02-04T05:50:15.374Z,5.47
2024-02-04T05:50:47.240Z,5.27
2024-02-04T05:51:19.057Z,5.00
2024-02-04T05:51:50.855Z,5.07
2024-02-04T05:52:22.711Z,5.07
2024-02-04T05:52:54.522Z,4.57
2024-02-04T05:53:26.290Z,4.60
2024-02-04T05:53:58.170Z,4.97
2024-02-04T05:54:30.208Z,5.20
2024-02-04T05:55:04.833Z,5.13
2024-02-04T05:55:37.371Z,5.03
2024-02-04T05:56:09.469Z,5.23
2024-02-04T05:56:41.402Z,4.77
2024-02-04T05:57:13.521Z,4.77
2024-02-04T05:57:45.310Z,4.93
2024-02-04T05:58:17.254Z,4.80
2024-02-04T05:58:49.110Z,4.63
2024-02-04T05:59:20.921Z,4.37
2024-02-04T05:59:54.093Z,4.37
2024-02-04T06:00:27.489Z,4.30
2024-02-04T06:00:59.384Z,4.50
2024-02-04T06:01:31.242Z,4.53
2024-02-04T06:02:03.251Z,4.57
2024-02-04T06:02:35.318Z,4.13
2024-02-04T06:03:07.907Z,4.13
2024-02-04T06:03:40.044Z,4.23
2024-02-04T06:04:12.065Z,4.00
2024-02-04T06:04:44.012Z,4.30
2024-02-04T06:05:15.995Z,4.60
2024-02-04T06:05:47.994Z,4.47
2024-02-04T06:06:22.800Z,4.30
2024-02-04T06:06:54.716Z,4.33
2024-02-04T06:07:26.544Z,4.80
2024-02-04T06:07:58.457Z,4.57
2024-02-04T06:08:30.951Z,4.63
2024-02-04T06:09:02.808Z,4.77
2024-02-04T06:09:35.174Z,4.53
2024-02-04T06:10:10.846Z,4.40
2024-02-04T06:10:43.579Z,3.93
2024-02-04T06:11:16.009Z,4.07
2024-02-04T06:11:47.884Z,4.27
2024-02-04T06:12:19.712Z,4.33
2024-02-04T06:12:51.572Z,4.17
2024-02-04T06:13:23.373Z,4.13
2024-02-04T06:13:55.536Z,4.00
2024-02-04T06:14:27.375Z,4.07
2024-02-04T06:14:59.205Z,3.93
2024-02-04T06:15:31.133Z,4.23
2024-02-04T06:16:02.981Z,3.83
2024-02-04T06:16:35.500Z,3.73
2024-02-04T06:17:09.447Z,4.17
2024-02-04T06:17:41.736Z,3.70
2024-02-04T06:18:13.714Z,4.10
2024-02-04T06:18:46.001Z,3.90
2024-02-04T06:19:17.902Z,4.07
2024-02-04T06:19:49.893Z,4.40
2024-02-04T06:20:21.755Z,4.27
2024-02-04T06:20:53.578Z,4.33
2024-02-04T06:21:25.597Z,4.30
2024-02-04T06:21:57.558Z,3.97
2024-02-04T06:22:29.408Z,3.53
2024-02-04T06:23:02.054Z,3.60
2024-02-04T06:23:34.264Z,3.73
2024-02-04T06:24:06.244Z,3.63
2024-02-04T06:24:42.180Z,4.20
2024-02-04T06:25:14.270Z,3.93
2024-02-04T06:25:46.343Z,3.87
2024-02-04T06:26:18.207Z,3.77
2024-02-04T06:26:50.064Z,3.63
2024-02-04T06:27:21.988Z,4.00
2024-02-04T06:27:54.075Z,3.97
2024-02-04T06:28:26.035Z,3.83
2024-02-04T06:28:57.930Z,3.60
2024-02-04T06:29:29.900Z,3.77
2024-02-04T06:30:01.835Z,3.07
2024-02-04T06:30:33.714Z,3.43
2024-02-04T06:31:05.666Z,3.33
2024-02-04T06:31:37.596Z,3.47
2024-02-04T06:32:09.446Z,3.53
2024-02-04T06:32:41.354Z,3.47
2024-02-04T06:33:13.571Z,3.60
2024-02-04T06:33:45.571Z,3.57
2024-02-04T06:34:17.493Z,3.77
2024-02-04T06:34:49.787Z,3.47
2024-02-04T06:35:21.747Z,3.77
2024-02-04T06:35:53.700Z,3.97
2024-02-04T06:36:25.596Z,3.80
2024-02-04T06:36:57.679Z,3.90
2024-02-04T06:37:29.725Z,3.43
2024-02-04T06:38:02.024Z,3.43
2024-02-04T06:38:34.050Z,3.70
2024-02-04T06:39:08.252Z,3.63
2024-02-04T06:39:40.304Z,3.70
2024-02-04T06:40:12.683Z,3.33
2024-02-04T06:40:44.539Z,3.63
2024-02-04T06:41:16.299Z,3.87
2024-02-04T06:41:48.104Z,3.77
2024-02-04T06:42:20.023Z,3.17
2024-02-04T06:42:52.019Z,3.07
2024-02-04T06:43:23.917Z,2.87
2024-02-04T06:43:55.767Z,3.20
2024-02-04T06:44:27.578Z,3.30
2024-02-04T06:44:59.333Z,3.33
2024-02-04T06:45:31.162Z,3.50
2024-02-04T06:46:03.045Z,3.33
2024-02-04T06:46:35.060Z,3.33
2024-02-04T06:47:06.936Z,3.10
2024-02-04T06:47:38.787Z,3.10
2024-02-04T06:48:11.036Z,2.83
2024-02-04T06:48:43.124Z,3.20
2024-02-04T06:49:19.414Z,3.43
2024-02-04T06:49:51.648Z,3.30
2024-02-04T06:50:23.477Z,3.33
2024-02-04T06:50:55.324Z,3.03
2024-02-04T06:51:27.255Z,2.90
2024-02-04T06:51:59.538Z,2.97
2024-02-04T06:52:31.336Z,2.90
2024-02-04T06:53:03.210Z,2.87
2024-02-04T06:53:35.028Z,3.07
2024-02-04T06:54:06.884Z,2.83
2024-02-04T06:54:38.799Z,2.93
2024-02-04T06:55:11.253Z,2.83
2024-02-04T06:55:43.076Z,2.63
2024-02-04T06:56:15.002Z,2.70
2024-02-04T06:56:46.853Z,2.77
2024-02-04T06:57:18.662Z,2.53
2024-02-04T06:57:50.597Z,2.67
2024-02-04T06:58:22.698Z,2.80
2024-02-04T06:58:54.503Z,2.60
2024-02-04T06:59:26.260Z,2.50
2024-02-04T06:59:58.066Z,2.60
2024-02-04T07:00:29.948Z,2.40
2024-02-04T07:01:05.668Z,2.27
2024-02-04T07:01:37.624Z,2.37
2024-02-04T07:02:09.552Z,2.97
2024-02-04T07:02:41.412Z,2.97
2024-02-04T07:03:13.251Z,2.50
2024-02-04T07:03:45.193Z,2.90
2024-02-04T07:04:17.127Z,3.00
2024-02-04T07:04:51.152Z,3.03
2024-02-04T07:05:26.502Z,3.50
2024-02-04T07:06:02.213Z,3.67
2024-02-04T07:06:34.189Z,3.67
2024-02-04T07:07:06.085Z,3.13
2024-02-04T07:07:38.274Z,3.03
2024-02-04T07:08:10.659Z,3.23
2024-02-04T07:08:42.948Z,2.87
2024-02-04T07:09:14.759Z,2.67
2024-02-04T07:09:46.635Z,3.07
2024-02-04T07:10:18.647Z,3.00
2024-02-04T07:10:50.691Z,3.33
2024-02-04T07:11:22.480Z,3.37
2024-02-04T07:11:54.630Z,2.40
2024-02-04T07:12:26.474Z,2.17
2024-02-04T07:12:58.357Z,2.53
2024-02-04T07:13:30.556Z,2.70
2024-02-04T07:14:02.383Z,2.77
2024-02-04T07:14:34.247Z,2.87
2024-02-04T07:15:06.207Z,2.73
2024-02-04T07:15:38.060Z,2.93
2024-02-04T07:16:09.949Z,3.63